createdAt,value
2023-01-19T00:03:16.037Z,87.78
2023-01-19T00:07:18.133Z,87.94
2023-01-19T00:11:20.248Z,88.25
2023-01-19T00:15:21.963Z,88.06
2023-01-19T00:19:23.904Z,88.70
2023-01-19T00:23:26.208Z,89.37
2023-01-19T00:27:29.467Z,90.04
2023-01-19T00:31:34.177Z,90.75
2023-01-19T00:35:36.557Z,90.57
2023-01-19T00:39:38.294Z,90.17
2023-01-19T00:43:40.164Z,90.58
2023-01-19T00:47:42.478Z,90.68
2023-01-19T00:51:44.279Z,90.64
2023-01-19T00:55:46.158Z,90.85
2023-01-19T00:59:47.988Z,91.16
2023-01-19T01:03:49.721Z,91.61
2023-01-19T01:07:51.509Z,91.55
2023-01-19T01:11:53.689Z,91.52
2023-01-19T01:15:57.161Z,91.79
2023-01-19T01:19:59.039Z,92.13
2023-01-19T01:24:00.894Z,92.35
2023-01-19T01:28:05.162Z,92.45
2023-01-19T01:32:08.564Z,92.39
2023-01-19T01:36:12.020Z,92.65
2023-01-19T01:40:17.701Z,92.79
2023-01-19T01:44:52.875Z,92.86
2023-01-19T01:48:57.840Z,92.99
2023-01-19T01:53:22.090Z,93.22
2023-01-19T01:57:27.957Z,93.88
2023-01-19T02:01:48.676Z,94.18
2023-01-19T02:05:52.067Z,94.25
2023-01-19T02:10:12.415Z,93.95
2023-01-19T02:14:14.172Z,94.29
2023-01-19T02:18:16.103Z,94.09
2023-01-19T02:22:38.680Z,94.09
2023-01-19T02:26:44.414Z,94.06
2023-01-19T02:30:46.175Z,94.17
2023-01-19T02:34:47.971Z,94.91
2023-01-19T02:38:51.813Z,95.06
2023-01-19T02:42:58.708Z,94.85
2023-01-19T02:47:00.778Z,94.74
2023-01-19T02:51:09.421Z,94.26
2023-01-19T02:55:16.962Z,94.80
2023-01-19T02:59:37.928Z,95.16
2023-01-19T03:03:58.619Z,95.50
2023-01-19T03:08:17.627Z,95.28
2023-01-19T03:12:34.643Z,95.09
2023-01-19T03:16:42.125Z,94.89
2023-01-19T03:20:45.815Z,95.38
2023-01-19T03:24:48.828Z,95.14
2023-01-19T03:28:51.686Z,95.11
2023-01-19T03:32:59.201Z,94.54
2023-01-19T03:37:04.081Z,94.58
2023-01-19T03:41:11.421Z,94.67
2023-01-19T03:45:14.458Z,94.39
2023-01-19T03:49:16.675Z,94.84
2023-01-19T03:53:20.806Z,94.53
2023-01-19T03:57:25.614Z,94.73
2023-01-19T04:01:27.747Z,94.89
2023-01-19T04:05:29.708Z,95.13
2023-01-19T04:09:31.576Z,95.04
2023-01-19T04:13:33.318Z,94.95
2023-01-19T04:17:35.139Z,94.52
2023-01-19T04:21:36.894Z,93.40
2023-01-19T04:25:39.041Z,92.74
2023-01-19T04:29:40.771Z,92.25
2023-01-19T04:33:42.489Z,91.73
2023-01-19T04:37:45.188Z,91.48
2023-01-19T04:41:46.942Z,90.90
2023-01-19T04:45:49.325Z,90.66
2023-01-19T04:49:51.180Z,91.07
2023-01-19T04:53:52.907Z,90.71
2023-01-19T04:57:55.287Z,90.79
2023-01-19T05:01:57.235Z,90.88
2023-01-19T05:05:58.964Z,90.69
2023-01-19T05:10:01.153Z,90.59
2023-01-19T05:14:03.127Z,89.99
2023-01-19T05:18:05.002Z,89.83
2023-01-19T05:22:07.046Z,89.70
2023-01-19T05:26:09.678Z,89.17
2023-01-19T05:30:13.479Z,88.99
2023-01-19T05:34:15.589Z,88.47
2023-01-19T05:38:20.948Z,88.07
2023-01-19T05:42:32.818Z,88.31
2023-01-19T05:46:34.960Z,87.88
2023-01-19T05:50:36.660Z,87.01
2023-01-19T05:54:40.488Z,86.36
2023-01-19T05:58:42.313Z,87.06
2023-01-19T06:02:44.384Z,86.16
2023-01-19T06:06:49.818Z,86.22
2023-01-19T06:10:51.579Z,85.54
2023-01-19T06:14:53.283Z,85.33
2023-01-19T06:18:55.724Z,85.31
2023-01-19T06:22:58.010Z,84.66
2023-01-19T06:27:00.535Z,84.58
2023-01-19T06:31:02.603Z,84.42
2023-01-19T06:35:04.907Z,84.30
2023-01-19T06:39:06.801Z,84.28
2023-01-19T06:43:09.235Z,83.87
2023-01-19T06:47:15.403Z,84.28
2023-01-19T06:51:18.044Z,84.45
2023-01-19T06:55:20.022Z,84.52
2023-01-19T06:59:21.716Z,84.24
2023-01-19T07:03:23.709Z,83.97
2023-01-19T07:07:25.999Z,83.68
2023-01-19T07:11:31.410Z,83.82
2023-01-19T07:15:33.443Z,83.97
2023-01-19T07:19:35.433Z,83.91
2023-01-19T07:23:38.260Z,83.43
2023-01-19T07:27:40.631Z,83.34
2023-01-19T07:31:42.516Z,83.52
2023-01-19T07:35:50.671Z,83.52
2023-01-19T07:39:52.416Z,83.50
2023-01-19T07:43:54.309Z,83.08
2023-01-19T07:47:56.920Z,82.38
2023-01-19T07:51:58.631Z,82.78
2023-01-19T07:56:00.436Z,83.36
2023-01-19T08:00:03.531Z,83.38
2023-01-19T08:04:14.201Z,83.79
2023-01-19T08:08:15.993Z,83.99
2023-01-19T08:12:18.404Z,83.76
2023-01-19T08:16:20.134Z,83.83
2023-01-19T08:20:23.432Z,84.16
2023-01-19T08:24:28.647Z,84.31
2023-01-19T08:28:30.439Z,84.12
2023-01-19T08:32:32.646Z,84.35
2023-01-19T08:36:34.912Z,84.49
2023-01-19T08:40:41.464Z,84.18
2023-01-19T08:44:57.162Z,83.96
2023-01-19T08:48:59.680Z,83.73
2023-01-19T08:53:04.610Z,83.26
2023-01-19T08:57:06.362Z,83.10
2023-01-19T09:01:09.315Z,82.96
2023-01-19T09:05:12.142Z,82.64
2023-01-19T09:09:14.178Z,81.90
2023-01-19T09:13:17.219Z,81.26
2023-01-19T09:17:19.084Z,81.50
2023-01-19T09:21:20.873Z,80.75
2023-01-19T09:25:22.593Z,80.29
2023-01-19T09:29:24.398Z,80.08
2023-01-19T09:33:26.207Z,79.37
2023-01-19T09:37:28.024Z,79.16
2023-01-19T09:41:30.466Z,79.23
2023-01-19T09:45:40.040Z,78.19
2023-01-19T09:49:47.112Z,77.79
2023-01-19T09:54:39.279Z,77.52
2023-01-19T09:58:41.725Z,77.53
2023-01-19T10:02:48.634Z,77.30
2023-01-19T10:06:54.185Z,77.00
2023-01-19T10:10:58.098Z,76.73
2023-01-19T10:15:01.660Z,76.54
2023-01-19T10:19:16.227Z,76.02
2023-01-19T10:23:30.776Z,75.90
2023-01-19T10:27:35.062Z,75.82
2023-01-19T10:31:40.800Z,75.41
2023-01-19T10:35:42.997Z,75.81
2023-01-19T10:39:54.190Z,74.80
2023-01-19T10:44:01.164Z,74.67
2023-01-19T10:48:07.330Z,74.04
2023-01-19T10:52:33.444Z,73.79
2023-01-19T10:56:37.325Z,73.88
2023-01-19T11:00:43.546Z,73.67
2023-01-19T11:04:48.951Z,73.55
2023-01-19T11:08:53.386Z,72.88
2023-01-19T11:13:02.880Z,73.30
2023-01-19T11:17:04.864Z,72.81
2023-01-19T11:21:09.662Z,72.38
2023-01-19T11:25:22.901Z,72.59
2023-01-19T11:29:26.979Z,72.17
2023-01-19T11:33:50.733Z,71.88
2023-01-19T11:38:06.138Z,71.55
2023-01-19T11:42:12.962Z,71.41
2023-01-19T11:46:15.501Z,70.77
2023-01-19T11:50:33.170Z,70.95
2023-01-19T11:54:49.473Z,70.55
2023-01-19T11:58:51.625Z,70.85
2023-01-19T12:02:58.781Z,69.89
2023-01-19T12:07:10.204Z,69.10
2023-01-19T12:11:17.673Z,69.40
2023-01-19T12:15:23.658Z,69.30
2023-01-19T12:19:31.564Z,69.47
2023-01-19T12:23:53.705Z,69.13
2023-01-19T12:27:56.234Z,69.04
2023-01-19T12:32:13.220Z,69.35
2023-01-19T12:36:30.403Z,67.58
2023-01-19T12:40:35.272Z,69.05
2023-01-19T12:44:37.178Z,68.89
2023-01-19T12:48:39.711Z,68.11
2023-01-19T12:52:51.562Z,67.95
2023-01-19T12:57:00.633Z,67.58
2023-01-19T13:01:14.645Z,67.18
2023-01-19T13:05:18.228Z,66.88
2023-01-19T13:09:30.751Z,67.27
2023-01-19T13:13:40.457Z,66.86
2023-01-19T13:17:54.244Z,67.08
2023-01-19T13:21:56.098Z,66.75
2023-01-19T13:26:13.776Z,66.58
2023-01-19T13:30:18.492Z,66.09
2023-01-19T13:34:25.064Z,66.39
2023-01-19T13:38:29.397Z,66.50
2023-01-19T13:42:36.385Z,66.80
2023-01-19T13:46:38.799Z,66.44
2023-01-19T13:50:40.655Z,66.79
2023-01-19T13:55:02.886Z,66.48
2023-01-19T13:59:12.706Z,66.02
2023-01-19T14:03:23.094Z,66.48
2023-01-19T14:07:27.623Z,65.81
2023-01-19T14:11:29.359Z,66.19
2023-01-19T14:15:34.169Z,65.73
2023-01-19T14:19:56.326Z,66.05
2023-01-19T14:24:09.284Z,65.88
2023-01-19T14:28:30.417Z,66.29
2023-01-19T14:32:45.453Z,66.28
2023-01-19T14:36:51.851Z,66.05
2023-01-19T14:40:53.760Z,66.20
2023-01-19T14:44:57.018Z,66.54
2023-01-19T14:49:03.130Z,66.12
2023-01-19T14:53:08.153Z,65.90
2023-01-19T14:57:14.090Z,65.81
2023-01-19T15:01:15.942Z,65.71
2023-01-19T15:05:17.839Z,66.18
2023-01-19T15:09:19.677Z,66.30
2023-01-19T15:13:25.747Z,66.36
2023-01-19T15:17:27.540Z,66.18
2023-01-19T15:21:29.392Z,66.52
2023-01-19T15:25:31.673Z,66.70
2023-01-19T15:29:34.217Z,66.59
2023-01-19T15:33:35.984Z,66.72
2023-01-19T15:37:37.696Z,67.13
2023-01-19T15:41:40.598Z,67.58
2023-01-19T15:45:48.022Z,67.59
2023-01-19T15:49:49.832Z,67.66
2023-01-19T15:53:52.891Z,68.41
2023-01-19T15:57:58.567Z,68.57
2023-01-19T16:02:00.422Z,68.52
2023-01-19T16:06:02.487Z,68.93
2023-01-19T16:10:06.446Z,69.30
2023-01-19T16:14:08.175Z,70.19
2023-01-19T16:18:09.919Z,70.19
2023-01-19T16:22:12.091Z,70.60
2023-01-19T16:26:28.688Z,71.37
2023-01-19T16:30:30.548Z,71.24
2023-01-19T16:34:32.711Z,71.74
2023-01-19T16:38:34.516Z,72.31
2023-01-19T16:42:36.352Z,72.44
2023-01-19T16:46:40.692Z,72.70
2023-01-19T16:50:42.449Z,72.90
2023-01-19T16:54:44.285Z,72.99
2023-01-19T16:58:46.078Z,72.86
2023-01-19T17:02:47.974Z,72.94
2023-01-19T17:06:52.997Z,72.87
2023-01-19T17:10:55.761Z,73.74
2023-01-19T17:14:57.529Z,74.06
2023-01-19T17:19:00.761Z,74.29
2023-01-19T17:23:02.815Z,74.71
2023-01-19T17:27:04.650Z,75.22
2023-01-19T17:31:07.416Z,75.40
2023-01-19T17:35:10.325Z,76.38
2023-01-19T17:39:15.074Z,76.75
2023-01-19T17:43:16.998Z,76.85
2023-01-19T17:47:24.722Z,77.17
2023-01-19T17:51:27.898Z,77.48
2023-01-19T17:55:29.648Z,77.96
2023-01-19T17:59:32.784Z,77.96
2023-01-19T18:03:34.616Z,78.79
2023-01-19T18:07:36.357Z,78.34
2023-01-19T18:11:38.335Z,79.22
2023-01-19T18:15:40.145Z,79.27
2023-01-19T18:19:41.851Z,79.61
2023-01-19T18:23:45.168Z,79.25
2023-01-19T18:27:46.999Z,79.77
2023-01-19T18:31:48.884Z,79.96
2023-01-19T18:35:50.938Z,80.34
2023-01-19T18:39:54.644Z,80.75
2023-01-19T18:43:59.922Z,80.61
2023-01-19T18:48:02.170Z,81.49
2023-01-19T18:52:04.058Z,81.62
2023-01-19T18:56:07.102Z,82.16
2023-01-19T19:00:09.528Z,82.11
2023-01-19T19:04:11.285Z,81.89
2023-01-19T19:08:13.285Z,81.87
2023-01-19T19:12:15.061Z,81.78
2023-01-19T19:16:16.929Z,81.43
2023-01-19T19:20:19.625Z,81.17
2023-01-19T19:24:21.345Z,81.67
2023-01-19T19:28:23.112Z,82.31
2023-01-19T19:32:24.874Z,82.84
2023-01-19T19:36:28.020Z,82.84
2023-01-19T19:40:30.255Z,83.33
2023-01-19T19:44:32.051Z,83.69
2023-01-19T19:48:36.666Z,83.82
2023-01-19T19:52:40.997Z,84.12
2023-01-19T19:56:42.895Z,83.96
2023-01-19T20:00:46.038Z,84.20
2023-01-19T20:04:47.907Z,84.61
2023-01-19T20:08:51.819Z,84.54
2023-01-19T20:12:53.629Z,84.94
2023-01-19T20:16:55.343Z,85.07
2023-01-19T20:20:58.450Z,85.24
2023-01-19T20:25:00.210Z,85.22
2023-01-19T20:29:06.299Z,85.16
2023-01-19T20:33:08.080Z,85.64
2023-01-19T20:37:10.250Z,85.47
2023-01-19T20:41:12.909Z,85.92
2023-01-19T20:45:14.788Z,86.27
2023-01-19T20:49:16.657Z,86.09
2023-01-19T20:53:18.334Z,86.43
2023-01-19T20:57:20.157Z,86.41
2023-01-19T21:01:24.498Z,86.49
2023-01-19T21:05:26.393Z,86.88
2023-01-19T21:09:28.212Z,87.25
2023-01-19T21:13:30.764Z,86.89
2023-01-19T21:17:32.828Z,86.90
2023-01-19T21:21:34.660Z,87.16
2023-01-19T21:25:37.464Z,86.89
2023-01-19T21:29:40.895Z,86.92
2023-01-19T21:33:43.948Z,86.47
2023-01-19T21:37:45.764Z,86.92
2023-01-19T21:41:47.577Z,87.05
2023-01-19T21:45:49.947Z,88.06
2023-01-19T21:49:51.698Z,88.53
2023-01-19T21:53:56.098Z,88.88
2023-01-19T21:57:57.779Z,89.12
2023-01-19T22:01:59.776Z,89.05
2023-01-19T22:06:13.140Z,88.84
2023-01-19T22:10:15.017Z,89.17
2023-01-19T22:14:16.858Z,89.29
2023-01-19T22:18:18.709Z,89.66
2023-01-19T22:22:20.432Z,89.35
2023-01-19T22:26:22.473Z,89.37
2023-01-19T22:30:24.250Z,89.60
2023-01-19T22:34:26.240Z,89.80
2023-01-19T22:38:28.023Z,89.67
2023-01-19T22:42:29.866Z,90.11
2023-01-19T22:46:34.258Z,90.38
2023-01-19T22:50:36.013Z,90.57
2023-01-19T22:54:37.754Z,90.45
2023-01-19T22:58:44.295Z,90.40
2023-01-19T23:02:46.124Z,90.45
2023-01-19T23:06:50.566Z,90.50
2023-01-19T23:10:52.323Z,90.79
2023-01-19T23:14:54.043Z,90.64
2023-01-19T23:18:58.168Z,91.06
2023-01-19T23:23:00.006Z,91.05
2023-01-19T23:27:02.533Z,91.01
2023-01-19T23:31:14.733Z,91.26
2023-01-19T23:35:16.981Z,91.13
2023-01-19T23:39:22.544Z,91.11
2023-01-19T23:43:24.267Z,91.25
2023-01-19T23:47:25.986Z,91.14
2023-01-19T23:51:30.249Z,91.31
2023-01-19T23:55:32.017Z,91.36
2023-01-19T23:59:33.843Z,91.77
